createdAt,value
2022-11-27T01:48:25.024Z,-3.62
2022-11-27T01:50:29.296Z,-3.67
2022-11-27T01:52:42.762Z,-3.62
2022-11-27T01:57:47.607Z,-3.70
2022-11-27T02:00:50.854Z,-3.63
2022-11-27T02:02:13.198Z,-3.55
2022-11-27T02:06:34.854Z,-3.60
2022-11-27T02:10:14.114Z,-3.60
2022-11-27T02:12:10.740Z,-3.61
2022-11-27T02:17:28.984Z,-3.50
2022-11-27T02:19:20.108Z,-3.34
2022-11-27T02:22:48.542Z,-3.48
2022-11-27T02:24:21.985Z,-3.39
2022-11-27T02:25:40.629Z,-3.47
2022-11-27T02:27:17.003Z,-3.37
2022-11-27T02:28:50.837Z,-3.44
2022-11-27T02:30:13.649Z,-3.52
2022-11-27T02:31:56.661Z,-3.40
2022-11-27T02:33:11.041Z,-3.22
2022-11-27T02:34:53.606Z,-3.37
2022-11-27T02:36:49.867Z,-3.43
2022-11-27T02:40:56.827Z,-3.65
2022-11-27T02:42:29.893Z,-3.50
2022-11-27T03:25:47.020Z,-3.20
2022-11-27T03:27:06.085Z,-3.25
2022-11-27T03:28:32.995Z,-3.01
2022-11-27T03:32:05.672Z,-3.11
2022-11-27T03:35:30.361Z,-3.12
2022-11-27T03:40:02.122Z,-3.16
2022-11-27T03:45:15.148Z,-3.30
2022-11-27T03:47:16.956Z,-3.27
2022-11-27T03:51:27.986Z,-3.08
2022-11-27T04:07:05.803Z,-3.06
2022-11-27T04:11:59.751Z,-3.29
2022-11-27T04:16:42.752Z,-3.30
2022-11-27T04:22:02.474Z,-3.06
2022-11-27T04:23:48.428Z,-3.10
2022-11-27T04:25:36.944Z,-3.35
2022-11-27T04:29:22.554Z,-3.20
2022-11-27T04:31:08.486Z,-3.09
2022-11-27T04:32:35.083Z,-2.99
2022-11-27T04:39:19.348Z,-3.00
2022-11-27T04:51:40.524Z,-2.87
2022-11-27T04:53:56.714Z,-2.91
2022-11-27T04:58:44.871Z,-2.69
2022-11-27T05:00:18.866Z,-2.70
2022-11-27T05:02:38.987Z,-2.83
2022-11-27T05:06:36.141Z,-2.65
2022-11-27T05:08:37.997Z,-2.68
2022-11-27T05:24:37.130Z,-2.73
2022-11-27T05:26:04.557Z,-2.84
2022-11-27T05:27:36.168Z,-2.69
2022-11-27T05:28:53.007Z,-2.66
2022-11-27T05:30:15.371Z,-2.76
2022-11-27T05:31:38.643Z,-2.77
2022-11-27T06:11:59.405Z,-2.44
2022-11-27T06:15:07.926Z,-2.37
2022-11-27T06:34:08.194Z,-2.39
2022-11-27T06:35:24.292Z,-2.32
2022-11-27T06:36:46.874Z,-2.28
2022-11-27T06:37:53.199Z,-2.39
2022-11-27T06:39:47.556Z,-2.33
2022-11-27T06:41:16.710Z,-2.15
2022-11-27T06:42:28.861Z,-2.05
2022-11-27T06:44:19.070Z,-1.95
2022-11-27T06:46:07.245Z,-1.86
2022-11-27T06:52:48.435Z,-2.28
2022-11-27T06:56:14.570Z,-2.09
2022-11-27T06:58:01.507Z,-2.02
2022-11-27T06:59:18.595Z,-1.88
2022-11-27T07:00:25.461Z,-2.11
2022-11-27T07:01:32.220Z,-2.07
2022-11-27T07:02:49.860Z,-2.09
2022-11-27T07:04:34.371Z,-1.97
2022-11-27T07:05:51.296Z,-1.93
2022-11-27T07:07:09.624Z,-1.89
2022-11-27T07:08:27.225Z,-1.92
2022-11-27T07:09:50.756Z,-1.77
2022-11-27T07:11:05.895Z,-1.81
2022-11-27T07:12:10.363Z,-1.81
2022-11-27T07:13:16.485Z,-1.73
2022-11-27T07:14:27.233Z,-1.76
2022-11-27T07:15:34.178Z,-1.72
2022-11-27T07:16:42.564Z,-1.62
2022-11-27T08:27:26.978Z,-0.73
2022-11-27T08:28:38.918Z,-0.70
2022-11-27T08:29:50.125Z,-0.62
2022-11-27T08:34:27.519Z,-0.88
2022-11-27T08:36:02.246Z,-0.85
2022-11-27T08:41:42.183Z,-0.65
2022-11-27T08:45:06.315Z,-0.57
2022-11-27T08:46:12.628Z,-0.52
2022-11-27T08:55:40.490Z,-0.35
2022-11-27T09:02:16.403Z,-0.48
2022-11-27T09:05:56.464Z,-0.45
2022-11-27T09:07:58.697Z,-0.49
2022-11-27T09:16:05.179Z,-0.41
2022-11-27T09:23:57.014Z,-0.30
2022-11-27T09:25:48.557Z,-0.24
2022-11-27T09:27:35.079Z,-0.19
2022-11-27T09:28:45.212Z,-0.17
2022-11-27T09:29:54.992Z,-0.20
2022-11-27T09:31:06.507Z,-0.24
2022-11-27T09:32:12.340Z,-0.04
2022-11-27T09:33:22.313Z,-0.20
2022-11-27T09:34:37.279Z,-0.15
2022-11-27T09:35:49.323Z,-0.21
2022-11-27T09:37:21.662Z,-0.30
2022-11-27T09:38:29.717Z,-0.36
2022-11-27T09:39:35.515Z,-0.37
2022-11-27T09:40:55.528Z,-0.29
2022-11-27T09:42:44.858Z,-0.12
2022-11-27T09:44:09.263Z,-0.16
2022-11-27T09:45:17.821Z,-0.21
2022-11-27T09:46:29.834Z,-0.31
2022-11-27T09:47:42.012Z,-0.25
2022-11-27T09:48:50.521Z,-0.03
2022-11-27T09:50:26.664Z,-0.06
2022-11-27T09:51:44.084Z,0.14
2022-11-27T09:53:27.765Z,-0.03
2022-11-27T09:54:50.835Z,-0.05
2022-11-27T09:56:06.962Z,0.03
2022-11-27T09:57:33.404Z,0.01
2022-11-27T09:58:49.925Z,0.16
2022-11-27T10:00:11.391Z,0.16
2022-11-27T10:01:30.436Z,0.27
2022-11-27T10:02:47.394Z,0.31
2022-11-27T10:04:04.912Z,0.12
2022-11-27T10:05:18.381Z,0.46
2022-11-27T10:06:30.491Z,0.27
2022-11-27T10:08:06.922Z,0.28
2022-11-27T10:09:38.782Z,0.20
2022-11-27T10:11:03.416Z,0.33
2022-11-27T10:12:51.837Z,0.24
2022-11-27T10:19:20.910Z,-0.05
2022-11-27T10:20:55.914Z,-0.06
2022-11-27T10:40:05.619Z,-0.30
2022-11-27T10:41:49.695Z,-0.32
2022-11-27T10:43:49.643Z,-0.24
2022-11-27T10:45:29.531Z,-0.24
2022-11-27T10:53:33.988Z,-0.23
2022-11-27T10:56:58.047Z,-0.06
2022-11-27T10:58:03.613Z,-0.04
2022-11-27T10:59:11.886Z,-0.32
2022-11-27T11:00:28.714Z,-0.42
2022-11-27T11:01:47.500Z,-0.43
2022-11-27T11:03:06.901Z,-0.51
2022-11-27T11:04:31.684Z,-0.48
2022-11-27T11:06:18.533Z,-0.50
2022-11-27T11:06:59.890Z,-0.63
2022-11-27T11:08:18.633Z,-0.57
2022-11-27T11:09:31.810Z,-0.51
2022-11-27T11:11:13.801Z,-0.55
2022-11-27T11:12:21.749Z,-0.49
2022-11-27T11:13:28.283Z,-0.58
2022-11-27T11:14:32.202Z,-0.55
2022-11-27T11:15:36.653Z,-0.47
2022-11-27T11:16:50.200Z,-0.30
2022-11-27T11:17:53.602Z,-0.43
2022-11-27T11:18:57.367Z,-0.43
2022-11-27T11:20:01.851Z,-0.34
2022-11-27T11:21:07.940Z,-0.34
2022-11-27T11:22:19.033Z,-0.20
2022-11-27T11:23:32.215Z,-0.43
2022-11-27T11:24:40.825Z,-0.26
2022-11-27T11:25:50.693Z,-0.39
2022-11-27T11:27:09.933Z,-0.31
2022-11-27T11:28:21.291Z,-0.30
2022-11-27T11:29:33.061Z,-0.39
2022-11-27T11:30:44.039Z,-0.36
2022-11-27T11:31:56.840Z,-0.46
2022-11-27T11:33:05.040Z,-0.63
2022-11-27T11:36:14.084Z,-0.74
2022-11-27T11:37:38.281Z,-0.71
2022-11-27T11:38:48.725Z,-0.56
2022-11-27T11:40:03.515Z,-0.50
2022-11-27T11:42:40.402Z,-0.67
2022-11-27T11:44:05.854Z,-0.60
2022-11-27T11:45:17.744Z,-0.80
2022-11-27T11:46:58.194Z,-0.95
2022-11-27T11:48:25.950Z,-0.94
2022-11-27T11:49:47.351Z,-1.07
2022-11-27T11:51:57.174Z,-1.04
2022-11-27T11:54:12.192Z,-1.09
2022-11-27T11:55:27.822Z,-1.13
2022-11-27T11:56:37.338Z,-1.06
2022-11-27T11:57:56.095Z,-0.96
2022-11-27T11:59:08.371Z,-1.21
2022-11-27T12:00:18.114Z,-1.21
2022-11-27T12:01:38.752Z,-1.36
2022-11-27T12:02:58.724Z,-1.51
2022-11-27T12:04:35.756Z,-1.42
2022-11-27T12:06:00.389Z,-1.47
2022-11-27T12:07:36.689Z,-1.52
2022-11-27T12:09:02.637Z,-1.64
2022-11-27T12:10:10.756Z,-1.64
2022-11-27T12:11:20.299Z,-1.56
2022-11-27T12:13:01.656Z,-1.50
2022-11-27T12:14:22.538Z,-1.62
2022-11-27T12:16:07.750Z,-1.60
2022-11-27T12:17:11.780Z,-1.58
2022-11-27T12:18:25.646Z,-1.55
2022-11-27T12:20:07.022Z,-1.70
2022-11-27T12:21:41.643Z,-1.75
2022-11-27T12:23:26.649Z,-1.79
2022-11-27T12:24:34.613Z,-1.62
2022-11-27T12:25:57.007Z,-1.62
2022-11-27T12:27:17.664Z,-1.57
2022-11-27T12:28:39.515Z,-1.60
2022-11-27T12:29:42.611Z,-1.55
2022-11-27T12:31:22.056Z,-1.55
2022-11-27T12:32:49.894Z,-1.33
2022-11-27T12:34:06.676Z,-1.40
2022-11-27T12:35:40.627Z,-1.55
2022-11-27T12:37:00.991Z,-1.45
2022-11-27T12:38:41.230Z,-1.51
2022-11-27T12:40:29.906Z,-1.33
2022-11-27T12:42:01.680Z,-1.33
2022-11-27T12:43:06.964Z,-1.31
2022-11-27T12:44:33.956Z,-1.42
2022-11-27T12:46:12.133Z,-1.38
2022-11-27T12:47:29.704Z,-1.38
2022-11-27T12:48:41.063Z,-1.35
2022-11-27T12:49:57.879Z,-1.57
2022-11-27T12:51:07.100Z,-1.51
2022-11-27T12:52:19.107Z,-1.43
2022-11-27T12:54:17.569Z,-1.50
2022-11-27T12:55:26.814Z,-1.57
2022-11-27T12:56:41.353Z,-1.51
2022-11-27T12:57:46.624Z,-1.49
2022-11-27T12:59:16.227Z,-1.50
2022-11-27T13:00:24.823Z,-1.55
2022-11-27T13:01:34.210Z,-1.45
2022-11-27T13:02:46.621Z,-1.52
2022-11-27T13:04:06.861Z,-1.62
2022-11-27T13:05:26.785Z,-1.79
2022-11-27T13:06:33.242Z,-1.71
2022-11-27T13:07:51.942Z,-1.69
2022-11-27T13:09:00.137Z,-1.60
2022-11-27T13:10:21.598Z,-1.65
2022-11-27T13:11:39.638Z,-1.66
2022-11-27T13:13:08.541Z,-1.58
2022-11-27T13:14:20.370Z,-1.56
2022-11-27T13:15:35.992Z,-1.49
2022-11-27T13:16:47.037Z,-1.64
2022-11-27T13:17:56.750Z,-1.50
2022-11-27T13:19:33.948Z,-1.57
2022-11-27T13:20:40.444Z,-1.52
2022-11-27T13:21:47.155Z,-1.54
2022-11-27T13:22:51.268Z,-1.50
2022-11-27T13:23:55.320Z,-1.40
2022-11-27T13:25:01.752Z,-1.30
2022-11-27T13:26:12.784Z,-1.38
2022-11-27T13:27:36.456Z,-1.45
2022-11-27T13:29:06.073Z,-1.31
2022-11-27T13:30:10.028Z,-1.37
2022-11-27T13:31:22.727Z,-1.42
2022-11-27T13:32:50.810Z,-1.43
2022-11-27T13:34:07.941Z,-1.38
2022-11-27T13:36:09.263Z,-1.44
2022-11-27T13:37:31.194Z,-1.42
2022-11-27T13:38:43.546Z,-1.44
2022-11-27T13:40:05.490Z,-1.53
2022-11-27T13:41:21.861Z,-1.48
2022-11-27T13:42:30.901Z,-1.50
2022-11-27T13:43:52.701Z,-1.43
2022-11-27T13:45:09.381Z,-1.51
2022-11-27T13:46:25.527Z,-1.47
2022-11-27T13:47:52.777Z,-1.33
2022-11-27T13:49:09.837Z,-1.32
2022-11-27T13:54:42.051Z,-1.64
2022-11-27T13:56:45.582Z,-1.50
2022-11-27T13:58:14.288Z,-1.39
2022-11-27T14:00:04.820Z,-1.39
2022-11-27T14:01:29.729Z,-1.41
2022-11-27T14:02:55.170Z,-1.51
2022-11-27T14:04:15.847Z,-1.47
2022-11-27T14:07:17.873Z,-1.60
2022-11-27T14:08:36.692Z,-1.61
2022-11-27T14:10:09.068Z,-1.71
2022-11-27T14:11:44.919Z,-1.56
2022-11-27T14:13:14.991Z,-1.54
2022-11-27T14:27:28.807Z,-1.64
2022-11-27T14:31:03.748Z,-1.71
2022-11-27T14:32:25.169Z,-1.69
2022-11-27T14:34:13.331Z,-1.61
2022-11-27T14:37:34.979Z,-1.72
2022-11-27T14:39:05.668Z,-1.55
2022-11-27T14:40:28.299Z,-1.60
2022-11-27T14:41:41.780Z,-1.57
2022-11-27T14:43:10.637Z,-1.57
2022-11-27T14:45:18.594Z,-1.44
2022-11-27T14:46:26.890Z,-1.48
2022-11-27T14:48:02.725Z,-1.40
2022-11-27T14:49:24.465Z,-1.50
2022-11-27T14:53:43.835Z,-1.56
2022-11-27T14:55:20.207Z,-1.69
2022-11-27T14:56:23.277Z,-1.63
2022-11-27T14:57:30.707Z,-1.56
2022-11-27T14:58:49.847Z,-1.73
2022-11-27T15:03:30.881Z,-1.62
2022-11-27T15:05:33.222Z,-1.65
2022-11-27T15:11:53.845Z,-1.62
2022-11-27T15:15:19.056Z,-1.83
2022-11-27T15:16:24.631Z,-1.81
2022-11-27T15:17:39.372Z,-1.75
2022-11-27T15:19:17.430Z,-1.84
2022-11-27T15:20:48.263Z,-1.91
2022-11-27T15:22:01.413Z,-1.75
2022-11-27T15:23:34.319Z,-1.71
2022-11-27T15:25:32.969Z,-1.76
2022-11-27T15:26:47.144Z,-1.68
2022-11-27T15:28:10.894Z,-1.71
2022-11-27T15:29:43.189Z,-1.93
2022-11-27T15:30:53.392Z,-1.83
2022-11-27T15:31:59.628Z,-1.81
2022-11-27T15:33:44.906Z,-1.90
2022-11-27T15:37:40.929Z,-1.90
2022-11-27T15:39:37.022Z,-1.79
2022-11-27T15:41:02.103Z,-1.83
2022-11-27T15:42:37.455Z,-1.80
2022-11-27T15:43:55.729Z,-1.85
2022-11-27T15:45:15.069Z,-1.77
2022-11-27T15:46:38.176Z,-1.84
2022-11-27T15:47:58.868Z,-1.76
2022-11-27T15:49:13.554Z,-1.77
2022-11-27T15:51:17.176Z,-1.87
2022-11-27T15:52:26.807Z,-1.94
2022-11-27T15:55:28.282Z,-1.77
2022-11-27T15:56:51.430Z,-1.89
2022-11-27T15:58:19.582Z,-1.86
2022-11-27T15:59:45.030Z,-1.98
2022-11-27T16:00:51.872Z,-1.97
2022-11-27T16:02:03.119Z,-1.82
2022-11-27T16:03:36.343Z,-1.71
2022-11-27T16:04:45.326Z,-1.63
2022-11-27T16:06:01.207Z,-1.75
2022-11-27T16:07:16.634Z,-1.66
2022-11-27T16:08:41.059Z,-1.80
2022-11-27T16:10:09.942Z,-1.66
2022-11-27T16:11:30.539Z,-1.68
2022-11-27T16:12:42.045Z,-1.80
2022-11-27T16:15:12.143Z,-1.92
2022-11-27T16:16:24.059Z,-1.85
2022-11-27T16:17:43.195Z,-1.77
2022-11-27T16:18:49.137Z,-1.85
2022-11-27T16:19:59.792Z,-1.85
2022-11-27T16:21:13.710Z,-1.90
2022-11-27T16:22:31.588Z,-1.89
2022-11-27T16:23:48.832Z,-1.78
2022-11-27T16:25:00.016Z,-1.86
2022-11-27T16:26:27.566Z,-1.88
2022-11-27T16:27:49.157Z,-2.01
2022-11-27T16:30:46.057Z,-1.88
2022-11-27T16:32:14.682Z,-1.81
2022-11-27T16:33:40.113Z,-1.80
2022-11-27T16:34:54.543Z,-1.92
2022-11-27T16:36:09.350Z,-2.00
2022-11-27T16:37:18.946Z,-1.96
2022-11-27T16:38:26.313Z,-2.04
2022-11-27T16:39:34.620Z,-1.91
2022-11-27T16:40:41.322Z,-1.96
2022-11-27T16:41:46.752Z,-1.92
2022-11-27T16:42:53.993Z,-1.90
2022-11-27T16:44:15.099Z,-2.05
2022-11-27T16:45:31.408Z,-1.95
2022-11-27T16:46:45.829Z,-1.97
2022-11-27T16:48:15.240Z,-1.97
2022-11-27T16:49:43.196Z,-1.94
2022-11-27T16:50:56.098Z,-1.89
2022-11-27T16:52:05.324Z,-1.86
2022-11-27T16:53:11.750Z,-1.89
2022-11-27T16:54:22.624Z,-1.90
2022-11-27T16:55:45.184Z,-1.83
2022-11-27T16:56:50.927Z,-1.85
2022-11-27T16:57:54.837Z,-1.84
2022-11-27T16:59:03.045Z,-1.72
2022-11-27T17:00:14.186Z,-1.85
2022-11-27T17:01:30.693Z,-1.75
2022-11-27T17:02:47.001Z,-1.76
2022-11-27T17:04:02.057Z,-1.79
2022-11-27T17:05:10.838Z,-1.79
2022-11-27T17:06:29.679Z,-1.82
2022-11-27T17:08:00.644Z,-1.64
2022-11-27T17:09:24.710Z,-1.72
2022-11-27T17:10:32.295Z,-1.74
2022-11-27T17:11:36.989Z,-1.70
2022-11-27T17:12:42.958Z,-1.62
2022-11-27T17:13:55.586Z,-1.64
2022-11-27T17:15:01.955Z,-1.66
2022-11-27T17:16:11.577Z,-1.66
2022-11-27T17:17:15.344Z,-1.57
2022-11-27T17:18:24.908Z,-1.61
2022-11-27T17:19:36.308Z,-1.68
2022-11-27T17:20:42.158Z,-1.58
2022-11-27T17:21:55.447Z,-1.54
2022-11-27T17:23:05.525Z,-1.71
2022-11-27T17:24:15.909Z,-1.80
2022-11-27T17:25:25.681Z,-1.79
2022-11-27T17:26:33.882Z,-1.89
2022-11-27T17:27:43.143Z,-1.85
2022-11-27T17:28:56.775Z,-1.75
2022-11-27T17:30:01.170Z,-1.82
2022-11-27T17:32:52.143Z,-1.90
2022-11-27T17:34:01.946Z,-1.86
2022-11-27T17:35:13.362Z,-1.78
2022-11-27T17:36:24.901Z,-1.88
2022-11-27T17:38:30.825Z,-1.79
2022-11-27T17:39:46.528Z,-1.89
2022-11-27T17:42:57.380Z,-1.91
2022-11-27T17:44:09.834Z,-1.87
2022-11-27T17:45:23.059Z,-1.81
2022-11-27T17:46:32.581Z,-1.77
2022-11-27T17:47:42.153Z,-1.84
2022-11-27T17:49:29.727Z,-1.67
2022-11-27T17:50:36.747Z,-1.84
2022-11-27T17:52:11.165Z,-1.80
2022-11-27T17:53:31.522Z,-1.87
2022-11-27T17:55:01.305Z,-1.86
2022-11-27T17:56:55.715Z,-1.87
2022-11-27T17:58:38.150Z,-1.77
2022-11-27T18:01:30.406Z,-1.82
2022-11-27T18:02:40.390Z,-1.76
2022-11-27T18:03:49.744Z,-1.78
2022-11-27T18:05:12.692Z,-1.70
2022-11-27T18:06:39.069Z,-1.69
2022-11-27T18:08:15.729Z,-1.69
2022-11-27T18:09:24.185Z,-1.62
2022-11-27T18:10:42.713Z,-1.62
2022-11-27T18:12:01.570Z,-1.57
2022-11-27T18:13:12.481Z,-1.58
2022-11-27T18:14:24.158Z,-1.67
2022-11-27T18:15:38.407Z,-1.76
2022-11-27T18:17:21.638Z,-1.75
2022-11-27T18:18:24.732Z,-1.71
2022-11-27T18:19:33.325Z,-1.69
2022-11-27T18:20:54.782Z,-1.73
2022-11-27T18:22:00.814Z,-1.75
2022-11-27T18:23:08.284Z,-1.77
2022-11-27T18:24:23.558Z,-1.95
2022-11-27T18:25:47.695Z,-1.89
2022-11-27T18:28:23.270Z,-1.92
2022-11-27T18:29:34.230Z,-1.88
2022-11-27T18:30:38.540Z,-1.86
2022-11-27T18:33:21.595Z,-1.73
2022-11-27T18:34:27.843Z,-1.71
2022-11-27T18:35:41.765Z,-1.86
2022-11-27T18:36:54.176Z,-1.86
2022-11-27T18:38:06.319Z,-1.74
2022-11-27T18:39:32.791Z,-1.89
2022-11-27T18:41:40.365Z,-1.79
2022-11-27T18:46:41.742Z,-1.82
2022-11-27T18:48:29.462Z,-1.77
2022-11-27T18:51:21.770Z,-1.81
2022-11-27T18:53:30.805Z,-1.94
2022-11-27T18:59:31.936Z,-1.97
2022-11-27T19:02:46.096Z,-1.91
2022-11-27T19:09:32.067Z,-1.77
2022-11-27T19:10:42.218Z,-1.89
2022-11-27T19:11:47.636Z,-1.77
2022-11-27T19:12:49.978Z,-1.75
2022-11-27T19:14:00.718Z,-1.77
2022-11-27T19:15:05.120Z,-1.82
2022-11-27T19:16:16.421Z,-1.82
2022-11-27T19:17:26.727Z,-1.80
2022-11-27T19:18:38.904Z,-1.77
2022-11-27T19:19:54.551Z,-1.78
2022-11-27T19:21:11.564Z,-1.95
2022-11-27T19:22:14.401Z,-2.02
2022-11-27T19:23:20.540Z,-2.06
2022-11-27T19:24:25.000Z,-1.97
2022-11-27T19:25:39.239Z,-1.88
2022-11-27T19:26:43.673Z,-1.85
2022-11-27T19:27:48.965Z,-1.83
2022-11-27T19:29:00.818Z,-1.86
2022-11-27T19:30:03.961Z,-1.89
2022-11-27T19:31:14.661Z,-1.83
2022-11-27T19:32:19.956Z,-1.92
2022-11-27T19:33:27.499Z,-1.92
2022-11-27T19:34:33.916Z,-2.05
2022-11-27T19:35:37.137Z,-1.97
2022-11-27T19:36:42.303Z,-1.85
2022-11-27T19:37:48.179Z,-1.77
2022-11-27T19:39:01.297Z,-1.76
2022-11-27T19:40:06.852Z,-1.67
2022-11-27T19:41:16.087Z,-1.90
2022-11-27T19:42:18.852Z,-1.79
2022-11-27T19:43:21.747Z,-1.70
2022-11-27T19:44:26.729Z,-1.70
2022-11-27T19:45:37.535Z,-1.79
2022-11-27T19:46:44.925Z,-1.92
2022-11-27T19:47:52.783Z,-1.82
2022-11-27T19:49:00.266Z,-1.79
2022-11-27T19:50:05.082Z,-1.81
2022-11-27T19:51:10.556Z,-1.77
2022-11-27T19:52:20.302Z,-1.60
2022-11-27T19:53:26.247Z,-1.79
2022-11-27T19:54:30.453Z,-1.76
2022-11-27T19:55:37.041Z,-1.88
2022-11-27T19:56:44.640Z,-1.86
2022-11-27T19:57:47.867Z,-1.85
2022-11-27T19:58:56.565Z,-1.81
2022-11-27T19:59:58.918Z,-1.87
2022-11-27T20:01:13.412Z,-1.79
2022-11-27T20:02:16.552Z,-1.86
2022-11-27T20:03:20.443Z,-1.78
2022-11-27T20:04:22.827Z,-1.78
2022-11-27T20:05:26.558Z,-1.84
2022-11-27T20:06:34.733Z,-1.82
2022-11-27T20:07:41.697Z,-1.88
2022-11-27T20:08:51.762Z,-1.95
2022-11-27T20:09:58.009Z,-1.94
2022-11-27T20:11:01.312Z,-1.89
2022-11-27T20:12:06.193Z,-2.07
2022-11-27T20:13:14.134Z,-2.03
2022-11-27T20:14:24.349Z,-2.01
2022-11-27T20:15:41.956Z,-1.98
2022-11-27T20:16:55.604Z,-1.87
2022-11-27T20:18:02.311Z,-1.85
2022-11-27T20:19:06.623Z,-1.76
2022-11-27T20:20:11.393Z,-1.62
2022-11-27T20:21:23.103Z,-1.83
2022-11-27T20:22:26.501Z,-1.83
2022-11-27T20:23:38.938Z,-1.87
2022-11-27T20:25:11.080Z,-1.77
2022-11-27T20:26:11.481Z,-1.82
2022-11-27T20:27:16.279Z,-2.01
2022-11-27T20:28:18.690Z,-1.89
2022-11-27T20:29:23.487Z,-1.91
2022-11-27T20:30:25.675Z,-1.90
2022-11-27T20:31:39.534Z,-1.92
2022-11-27T20:32:46.487Z,-1.89
2022-11-27T20:33:48.704Z,-1.78
2022-11-27T20:34:58.840Z,-1.85
2022-11-27T20:36:03.827Z,-1.79
2022-11-27T20:37:08.444Z,-1.79
2022-11-27T20:38:11.905Z,-1.78
2022-11-27T20:39:20.535Z,-1.86
2022-11-27T20:41:12.622Z,-1.82
2022-11-27T20:42:15.096Z,-1.86
2022-11-27T20:43:18.084Z,-2.01
2022-11-27T20:44:23.355Z,-1.92
2022-11-27T20:45:28.422Z,-1.81
2022-11-27T20:46:35.239Z,-1.76
2022-11-27T20:47:38.800Z,-1.87
2022-11-27T20:48:51.913Z,-1.90
2022-11-27T20:49:58.063Z,-1.97
2022-11-27T20:51:17.139Z,-1.81
2022-11-27T20:52:19.585Z,-1.90
2022-11-27T20:53:29.888Z,-1.80
2022-11-27T20:54:33.193Z,-1.73
2022-11-27T20:55:36.001Z,-1.68
2022-11-27T20:56:38.480Z,-1.77
2022-11-27T20:57:50.826Z,-1.69
2022-11-27T20:58:56.508Z,-1.70
2022-11-27T20:59:59.323Z,-1.70
2022-11-27T21:01:16.558Z,-1.80
2022-11-27T21:02:19.529Z,-1.66
2022-11-27T21:03:21.824Z,-1.61
2022-11-27T21:04:28.283Z,-1.75
2022-11-27T21:05:36.928Z,-1.86
2022-11-27T21:06:44.191Z,-1.85
2022-11-27T21:07:47.433Z,-1.88
2022-11-27T21:08:55.862Z,-1.88
2022-11-27T21:10:01.930Z,-1.94
2022-11-27T21:11:27.896Z,-1.87
2022-11-27T21:12:32.063Z,-1.87
2022-11-27T21:13:36.808Z,-1.80
2022-11-27T21:14:43.305Z,-1.82
2022-11-27T21:15:58.277Z,-1.81
2022-11-27T21:17:05.244Z,-1.90
2022-11-27T21:18:14.122Z,-1.81
2022-11-27T21:19:30.237Z,-1.94
2022-11-27T21:20:34.326Z,-1.91
2022-11-27T21:21:39.716Z,-1.85
2022-11-27T21:22:44.462Z,-2.03
2022-11-27T21:23:49.220Z,-2.03
2022-11-27T21:24:54.611Z,-1.93
2022-11-27T21:25:59.401Z,-1.94
2022-11-27T21:27:02.862Z,-2.08
2022-11-27T21:28:11.202Z,-1.87
2022-11-27T21:29:13.918Z,-1.91
2022-11-27T21:30:19.266Z,-2.03
2022-11-27T21:31:30.163Z,-1.91
2022-11-27T21:32:41.655Z,-1.97
2022-11-27T21:33:59.900Z,-1.95
2022-11-27T21:35:04.851Z,-1.88
2022-11-27T21:36:08.380Z,-1.87
2022-11-27T21:37:13.129Z,-1.92
2022-11-27T21:38:19.781Z,-1.80
2022-11-27T21:39:22.385Z,-1.70
2022-11-27T21:40:36.346Z,-1.76
2022-11-27T21:41:44.791Z,-1.64
2022-11-27T21:42:49.907Z,-1.72
2022-11-27T21:43:58.714Z,-1.69
2022-11-27T21:45:03.690Z,-1.69
2022-11-27T21:46:22.566Z,-1.82
2022-11-27T21:47:25.260Z,-1.83
2022-11-27T21:48:39.192Z,-1.92
2022-11-27T21:49:41.915Z,-1.95
2022-11-27T21:50:49.302Z,-1.86
2022-11-27T21:51:57.445Z,-1.80
2022-11-27T21:53:09.864Z,-1.98
2022-11-27T21:54:19.079Z,-1.91
2022-11-27T21:55:25.011Z,-1.93
2022-11-27T21:56:30.294Z,-2.04
2022-11-27T21:57:37.714Z,-1.90
2022-11-27T21:58:40.677Z,-1.87
2022-11-27T21:59:43.422Z,-2.05
2022-11-27T22:00:46.080Z,-2.05
2022-11-27T22:01:50.645Z,-2.11
2022-11-27T22:02:59.005Z,-2.02
2022-11-27T22:04:02.878Z,-2.00
2022-11-27T22:05:09.064Z,-1.93
2022-11-27T22:06:17.655Z,-2.05
2022-11-27T22:07:25.842Z,-2.09
2022-11-27T22:08:30.666Z,-2.17
2022-11-27T22:09:36.264Z,-1.98
2022-11-27T22:10:47.533Z,-1.97
2022-11-27T22:11:55.571Z,-2.00
2022-11-27T22:13:03.726Z,-1.96
2022-11-27T22:14:09.640Z,-1.87
2022-11-27T22:15:18.434Z,-1.83
2022-11-27T22:16:25.464Z,-1.93
2022-11-27T22:17:30.752Z,-1.90
2022-11-27T22:18:34.998Z,-1.80
2022-11-27T22:19:42.733Z,-1.79
2022-11-27T22:20:47.534Z,-1.77
2022-11-27T22:21:52.265Z,-1.75
2022-11-27T22:22:54.998Z,-1.80
2022-11-27T22:24:02.013Z,-1.74
2022-11-27T22:25:07.380Z,-1.76
2022-11-27T22:26:14.317Z,-1.75
2022-11-27T22:27:19.533Z,-1.67
2022-11-27T22:28:26.388Z,-1.78
2022-11-27T22:29:29.288Z,-1.71
2022-11-27T22:30:34.384Z,-1.59
2022-11-27T22:31:38.515Z,-1.64
2022-11-27T22:32:41.382Z,-1.70
2022-11-27T22:33:45.874Z,-1.63
2022-11-27T22:34:51.571Z,-1.61
2022-11-27T22:35:53.940Z,-1.56
2022-11-27T22:36:59.100Z,-1.63
2022-11-27T22:38:08.276Z,-1.53
2022-11-27T22:39:16.345Z,-1.55
2022-11-27T22:40:24.550Z,-1.70
2022-11-27T22:41:30.470Z,-1.72
2022-11-27T22:42:37.523Z,-1.64
2022-11-27T22:43:42.124Z,-1.67
2022-11-27T22:44:47.567Z,-1.63
2022-11-27T22:45:51.287Z,-1.61
2022-11-27T22:46:58.322Z,-1.55
2022-11-27T22:48:06.037Z,-1.51
2022-11-27T22:49:12.655Z,-1.42
2022-11-27T22:50:19.091Z,-1.52
2022-11-27T22:51:34.272Z,-1.49
2022-11-27T22:52:46.213Z,-1.54
2022-11-27T22:53:49.340Z,-1.47
2022-11-27T22:54:57.871Z,-1.68
2022-11-27T22:56:09.725Z,-1.69
2022-11-27T22:57:15.046Z,-1.65
2022-11-27T22:58:18.854Z,-1.63
2022-11-27T22:59:34.539Z,-1.64
2022-11-27T23:00:42.573Z,-1.70
2022-11-27T23:01:47.654Z,-1.64
2022-11-27T23:02:58.808Z,-1.66
2022-11-27T23:04:04.489Z,-1.81
2022-11-27T23:05:08.745Z,-1.77
2022-11-27T23:06:16.332Z,-1.79
2022-11-27T23:07:25.347Z,-1.71
2022-11-27T23:08:29.190Z,-1.72
2022-11-27T23:09:33.573Z,-1.80
2022-11-27T23:10:46.661Z,-1.67
2022-11-27T23:12:00.870Z,-1.67
2022-11-27T23:13:09.713Z,-1.65
2022-11-27T23:14:17.336Z,-1.57
2022-11-27T23:15:32.195Z,-1.52
2022-11-27T23:16:35.112Z,-1.68
2022-11-27T23:17:39.854Z,-1.64
2022-11-27T23:18:51.162Z,-1.75
2022-11-27T23:19:56.698Z,-1.66
2022-11-27T23:21:05.845Z,-1.73
2022-11-27T23:22:14.139Z,-1.52
2022-11-27T23:23:16.977Z,-1.62
2022-11-27T23:24:25.352Z,-1.59
2022-11-27T23:25:40.812Z,-1.68
2022-11-27T23:26:54.601Z,-1.60
2022-11-27T23:28:06.492Z,-1.55
2022-11-27T23:29:14.844Z,-1.76
2022-11-27T23:30:30.726Z,-1.60
2022-11-27T23:31:41.906Z,-1.56
2022-11-27T23:32:49.292Z,-1.61
2022-11-27T23:34:02.828Z,-1.65
2022-11-27T23:35:22.769Z,-1.65
2022-11-27T23:36:33.462Z,-1.58
2022-11-27T23:37:43.428Z,-1.42
2022-11-27T23:39:01.084Z,-1.52
2022-11-27T23:40:11.470Z,-1.48
2022-11-27T23:41:26.806Z,-1.53
2022-11-27T23:42:29.513Z,-1.52
2022-11-27T23:43:39.166Z,-1.50
2022-11-27T23:44:44.600Z,-1.41
2022-11-27T23:45:47.616Z,-1.45
2022-11-27T23:46:55.581Z,-1.47
2022-11-27T23:48:03.505Z,-1.56
2022-11-27T23:49:27.891Z,-1.56
2022-11-27T23:50:32.461Z,-1.49
2022-11-27T23:51:38.018Z,-1.45
2022-11-27T23:52:45.222Z,-1.46
2022-11-27T23:53:52.639Z,-1.40
2022-11-27T23:54:58.259Z,-1.43
2022-11-27T23:56:11.837Z,-1.40
2022-11-27T23:57:18.221Z,-1.42
2022-11-27T23:58:21.976Z,-1.35
2022-11-27T23:59:26.983Z,-1.40
